Time,TemperatureF,DewpointF,PressureIn,WindDirection,WindDirectionDegrees,WindSpeedMPH,WindSpeedGustMPH,Humidity,HourlyPrecipIn,Conditions,Clouds,dailyrainin,SolarRadiationWatts/m^2,SoftwareType,DateUTC
2013-05-05 00:12:00,63.0,62.0,-100.00,NW,324,4.0,7.0,95,0.00,,,0.05,0.000000,,2013-05-05 10:12:00,
2013-05-05 00:22:00,63.0,62.0,-100.00,NW,324,4.0,7.0,95,0.00,,,0.05,0.000000,,2013-05-05 10:22:00,
2013-05-05 00:32:00,63.0,62.0,-100.00,NW,324,4.0,7.0,95,0.00,,,0.05,0.000000,,2013-05-05 10:32:00,
2013-05-05 00:42:00,63.0,62.0,-100.00,NW,324,4.0,7.0,95,0.00,,,0.05,0.000000,,2013-05-05 10:42:00,
2013-05-05 01:12:00,63.0,62.0,-100.00,NNW,345,3.0,5.0,96,0.00,,,0.05,0.000000,,2013-05-05 11:12:00,
2013-05-05 01:21:00,63.0,62.0,-100.00,NNW,345,3.0,5.0,96,0.00,,,0.05,0.000000,,2013-05-05 11:21:00,
2013-05-05 01:32:00,63.0,62.0,-100.00,NNW,345,3.0,5.0,96,0.00,,,0.05,0.000000,,2013-05-05 11:32:00,
2013-05-05 01:42:00,63.0,62.0,-100.00,NNW,345,3.0,5.0,96,0.00,,,0.05,0.000000,,2013-05-05 11:42:00,
2013-05-05 02:11:00,63.0,62.0,-100.00,NNW,341,3.0,5.0,95,0.00,,,0.05,0.000000,,2013-05-05 12:11:00,
2013-05-05 02:21:00,63.0,62.0,-100.00,NNW,341,3.0,5.0,95,0.00,,,0.05,0.000000,,2013-05-05 12:21:00,
2013-05-05 02:31:00,63.0,62.0,-100.00,NNW,341,3.0,5.0,95,0.00,,,0.05,0.000000,,2013-05-05 12:31:00,
2013-05-05 02:42:00,63.0,62.0,-100.00,NNW,341,3.0,5.0,95,0.00,,,0.05,0.000000,,2013-05-05 12:42:00,
2013-05-05 03:11:00,63.0,62.0,-100.00,North,353,2.0,4.0,96,0.00,,,-99.99,0.000000,,2013-05-05 13:11:00,
2013-05-05 03:21:00,63.0,62.0,-100.00,North,353,2.0,4.0,96,0.00,,,-99.99,0.000000,,2013-05-05 13:21:00,
2013-05-05 03:32:00,63.0,62.0,-100.00,North,353,2.0,4.0,96,0.00,,,-99.99,0.000000,,2013-05-05 13:32:00,
2013-05-05 03:42:00,63.0,62.0,-100.00,North,353,2.0,4.0,96,0.00,,,-99.99,0.000000,,2013-05-05 13:42:00,
2013-05-05 04:11:00,63.0,62.0,-100.00,NNW,328,4.0,6.0,96,0.00,,,0.05,0.000000,,2013-05-05 14:11:00,
2013-05-05 04:21:00,63.0,62.0,-100.00,NNW,328,4.0,6.0,96,0.00,,,0.05,0.000000,,2013-05-05 14:21:00,
2013-05-05 04:31:00,63.0,62.0,-100.00,NNW,328,4.0,6.0,96,0.00,,,0.05,0.000000,,2013-05-05 14:31:00,
2013-05-05 04:41:00,63.0,62.0,-100.00,NNW,328,4.0,6.0,96,0.00,,,0.05,0.000000,,2013-05-05 14:41:00,
2013-05-05 05:11:00,63.0,62.0,-100.00,North,2,2.0,4.0,96,0.00,,,0.05,0.000000,,2013-05-05 15:11:00,
2013-05-05 05:21:00,63.0,62.0,-100.00,North,2,2.0,4.0,96,0.00,,,0.05,0.000000,,2013-05-05 15:21:00,
2013-05-05 05:32:00,63.0,62.0,-100.00,North,2,2.0,4.0,96,0.00,,,0.05,0.000000,,2013-05-05 15:32:00,
2013-05-05 05:43:00,63.0,62.0,-100.00,North,2,2.0,4.0,96,0.00,,,0.05,0.000000,,2013-05-05 15:43:00,
2013-05-05 06:12:00,62.0,61.0,-100.00,NNW,337,3.0,5.0,96,0.00,,,0.05,0.000000,,2013-05-05 16:12:00,
2013-05-05 06:22:00,62.0,61.0,-100.00,NNW,337,3.0,5.0,96,0.00,,,0.05,0.000000,,2013-05-05 16:22:00,
2013-05-05 06:32:00,62.0,61.0,-100.00,NNW,337,3.0,5.0,96,0.00,,,0.05,0.000000,,2013-05-05 16:32:00,
2013-05-05 06:42:00,62.0,61.0,-100.00,NNW,337,3.0,5.0,96,0.00,,,0.05,0.000000,,2013-05-05 16:42:00,
2013-05-05 07:12:00,62.0,61.0,-100.00,North,349,4.0,6.0,97,0.01,,,0.06,29.000000,,2013-05-05 17:12:00,
2013-05-05 07:23:00,62.0,61.0,-100.00,North,349,4.0,6.0,97,0.01,,,0.06,29.000000,,2013-05-05 17:23:00,
2013-05-05 07:31:00,62.0,61.0,-100.00,North,349,4.0,6.0,97,0.01,,,0.06,29.000000,,2013-05-05 17:31:00,
2013-05-05 07:42:00,62.0,61.0,-100.00,North,349,4.0,6.0,97,0.01,,,0.06,29.000000,,2013-05-05 17:42:00,
2013-05-05 08:11:00,67.0,63.0,-100.00,NNE,14,0.0,5.0,88,0.00,,,0.06,89.000000,,2013-05-05 18:11:00,
2013-05-05 08:21:00,67.0,63.0,-100.00,NNE,14,0.0,5.0,88,0.00,,,0.06,89.000000,,2013-05-05 18:21:00,
2013-05-05 08:31:00,67.0,63.0,-100.00,NNE,14,0.0,5.0,88,0.00,,,0.06,89.000000,,2013-05-05 18:31:00,
2013-05-05 08:41:00,67.0,63.0,-100.00,NNE,14,0.0,5.0,88,0.00,,,0.06,89.000000,,2013-05-05 18:41:00,
2013-05-05 09:11:00,67.0,63.0,-100.00,SSE,151,1.0,3.0,87,0.00,,,0.06,108.000000,,2013-05-05 19:11:00,
2013-05-05 09:21:00,67.0,63.0,-100.00,SSE,151,1.0,3.0,87,0.00,,,0.06,108.000000,,2013-05-05 19:21:00,
2013-05-05 09:32:00,67.0,63.0,-100.00,SSE,151,1.0,3.0,87,0.00,,,0.06,108.000000,,2013-05-05 19:32:00,
2013-05-05 09:41:00,67.0,63.0,-100.00,SSE,151,1.0,3.0,87,0.00,,,0.06,108.000000,,2013-05-05 19:41:00,
2013-05-05 10:11:00,66.0,64.0,-100.00,ESE,116,3.0,6.0,93,0.00,,,0.06,164.000000,,2013-05-05 20:11:00,
2013-05-05 10:21:00,66.0,64.0,-100.00,ESE,116,3.0,6.0,93,0.00,,,0.06,164.000000,,2013-05-05 20:21:00,
2013-05-05 10:31:00,66.0,64.0,-100.00,ESE,116,3.0,6.0,93,0.00,,,0.06,164.000000,,2013-05-05 20:31:00,
2013-05-05 10:41:00,66.0,64.0,-100.00,ESE,116,3.0,6.0,93,0.00,,,0.06,164.000000,,2013-05-05 20:41:00,
2013-05-05 11:11:00,67.0,64.0,-100.00,WNW,286,3.0,6.0,91,0.01,,,0.07,162.000000,,2013-05-05 21:11:00,
2013-05-05 11:21:00,67.0,64.0,-100.00,WNW,286,3.0,6.0,91,0.01,,,0.07,162.000000,,2013-05-05 21:21:00,
2013-05-05 11:32:00,67.0,64.0,-100.00,WNW,286,3.0,6.0,91,0.01,,,0.07,162.000000,,2013-05-05 21:32:00,
2013-05-05 11:42:00,67.0,64.0,-100.00,WNW,286,3.0,6.0,91,0.01,,,0.07,162.000000,,2013-05-05 21:42:00,
2013-05-05 12:12:00,71.0,63.0,-100.00,SSW,209,2.0,5.0,75,0.00,,,0.07,385.000000,,2013-05-05 22:12:00,
2013-05-05 12:22:00,71.0,63.0,-100.00,SSW,209,2.0,5.0,75,0.00,,,0.07,385.000000,,2013-05-05 22:22:00,
2013-05-05 12:33:00,71.0,63.0,-100.00,SSW,209,2.0,5.0,75,0.00,,,0.07,385.000000,,2013-05-05 22:33:00,
2013-05-05 12:41:00,71.0,63.0,-100.00,SSW,209,2.0,5.0,75,0.00,,,0.07,385.000000,,2013-05-05 22:41:00,
2013-05-05 13:11:00,69.0,65.0,-100.00,SE,126,4.0,8.0,87,0.00,,,0.07,351.000000,,2013-05-05 23:11:00,
2013-05-05 13:21:00,69.0,65.0,-100.00,SE,126,4.0,8.0,87,0.00,,,0.07,351.000000,,2013-05-05 23:21:00,
2013-05-05 13:32:00,69.0,65.0,-100.00,SE,126,4.0,8.0,87,0.00,,,0.07,351.000000,,2013-05-05 23:32:00,
2013-05-05 13:42:00,69.0,65.0,-100.00,SE,126,4.0,8.0,87,0.00,,,0.07,351.000000,,2013-05-05 23:42:00,
2013-05-05 14:11:00,70.0,65.0,-100.00,SSE,164,5.0,8.0,85,0.00,,,0.07,336.000000,,2013-05-06 00:11:00,
2013-05-05 14:21:00,70.0,65.0,-100.00,SSE,164,5.0,8.0,85,0.00,,,0.07,336.000000,,2013-05-06 00:21:00,
2013-05-05 14:31:00,70.0,65.0,-100.00,SSE,164,5.0,8.0,85,0.00,,,0.07,336.000000,,2013-05-06 00:31:00,
2013-05-05 14:41:00,70.0,65.0,-100.00,SSE,164,5.0,8.0,85,0.00,,,0.07,336.000000,,2013-05-06 00:41:00,
2013-05-05 15:11:00,71.0,65.0,-100.00,SSE,155,3.0,9.0,81,0.01,,,0.08,597.000000,,2013-05-06 01:11:00,
2013-05-05 15:21:00,71.0,65.0,-100.00,SSE,155,3.0,9.0,81,0.01,,,0.08,597.000000,,2013-05-06 01:21:00,
2013-05-05 15:31:00,71.0,65.0,-100.00,SSE,155,3.0,9.0,81,0.01,,,0.08,597.000000,,2013-05-06 01:31:00,
2013-05-05 15:41:00,71.0,65.0,-100.00,SSE,155,3.0,9.0,81,0.01,,,0.08,597.000000,,2013-05-06 01:41:00,
2013-05-05 16:12:00,69.0,64.0,-100.00,SSE,152,2.0,7.0,85,0.00,,,0.08,135.000000,,2013-05-06 02:12:00,
2013-05-05 16:21:00,69.0,64.0,-100.00,SSE,152,2.0,7.0,85,0.00,,,0.08,135.000000,,2013-05-06 02:21:00,
2013-05-05 16:32:00,69.0,64.0,-100.00,SSE,152,2.0,7.0,85,0.00,,,0.08,135.000000,,2013-05-06 02:32:00,
2013-05-05 16:42:00,69.0,64.0,-100.00,SSE,152,2.0,7.0,85,0.00,,,0.08,135.000000,,2013-05-06 02:42:00,
2013-05-05 17:11:00,68.0,64.0,-100.00,WNW,295,4.0,5.0,88,0.00,,,0.07,82.000000,,2013-05-06 03:11:00,
2013-05-05 17:22:00,68.0,64.0,-100.00,WNW,295,4.0,5.0,88,0.00,,,0.07,82.000000,,2013-05-06 03:22:00,
2013-05-05 17:33:00,68.0,64.0,-100.00,WNW,295,4.0,5.0,88,0.00,,,0.07,82.000000,,2013-05-06 03:33:00,
2013-05-05 17:42:00,68.0,64.0,-100.00,WNW,295,4.0,5.0,88,0.00,,,0.07,82.000000,,2013-05-06 03:42:00,
2013-05-05 18:12:00,68.0,63.0,-100.00,WSW,251,2.0,5.0,85,0.00,,,0.06,82.000000,,2013-05-06 04:12:00,
2013-05-05 18:23:00,68.0,63.0,-100.00,WSW,251,2.0,5.0,85,0.00,,,0.06,82.000000,,2013-05-06 04:23:00,
2013-05-05 18:32:00,68.0,63.0,-100.00,WSW,251,2.0,5.0,85,0.00,,,0.06,82.000000,,2013-05-06 04:32:00,
2013-05-05 18:42:00,68.0,63.0,-100.00,WSW,251,2.0,5.0,85,0.00,,,0.06,82.000000,,2013-05-06 04:42:00,
2013-05-05 19:12:00,68.0,65.0,-100.00,NW,317,0.0,4.0,90,0.00,,,0.05,23.000000,,2013-05-06 05:12:00,
2013-05-05 19:22:00,68.0,65.0,-100.00,NW,317,0.0,4.0,90,0.00,,,0.05,23.000000,,2013-05-06 05:22:00,
2013-05-05 19:32:00,68.0,65.0,-100.00,NW,317,0.0,4.0,90,0.00,,,0.05,23.000000,,2013-05-06 05:32:00,
2013-05-05 19:42:00,68.0,65.0,-100.00,NW,317,0.0,4.0,90,0.00,,,0.05,23.000000,,2013-05-06 05:42:00,
2013-05-05 20:12:00,66.0,65.0,-100.00,NNW,331,1.0,2.0,95,0.00,,,0.04,0.000000,,2013-05-06 06:12:00,
2013-05-05 20:21:00,66.0,65.0,-100.00,NNW,331,1.0,2.0,95,0.00,,,0.04,0.000000,,2013-05-06 06:21:00,
2013-05-05 20:31:00,66.0,65.0,-100.00,NNW,331,1.0,2.0,95,0.00,,,0.04,0.000000,,2013-05-06 06:31:00,
2013-05-05 20:41:00,66.0,65.0,-100.00,NNW,331,1.0,2.0,95,0.00,,,0.04,0.000000,,2013-05-06 06:41:00,
2013-05-05 21:11:00,66.0,65.0,-100.00,NE,36,0.0,3.0,95,0.00,,,0.03,0.000000,,2013-05-06 07:11:00,
2013-05-05 21:22:00,66.0,65.0,-100.00,NE,36,0.0,3.0,95,0.00,,,0.03,0.000000,,2013-05-06 07:22:00,
2013-05-05 21:31:00,66.0,65.0,-100.00,NE,36,0.0,3.0,95,0.00,,,0.03,0.000000,,2013-05-06 07:31:00,
2013-05-05 21:42:00,66.0,65.0,-100.00,NE,36,0.0,3.0,95,0.00,,,0.03,0.000000,,2013-05-06 07:42:00,
2013-05-05 22:12:00,65.0,64.0,-100.00,NW,323,3.0,5.0,97,0.00,,,0.03,0.000000,,2013-05-06 08:12:00,
2013-05-05 22:22:00,65.0,64.0,-100.00,NW,323,3.0,5.0,97,0.00,,,0.03,0.000000,,2013-05-06 08:22:00,
2013-05-05 22:31:00,65.0,64.0,-100.00,NW,323,3.0,5.0,97,0.00,,,0.03,0.000000,,2013-05-06 08:31:00,
2013-05-05 22:41:00,65.0,64.0,-100.00,NW,323,3.0,5.0,97,0.00,,,0.03,0.000000,,2013-05-06 08:41:00,
2013-05-05 23:11:00,64.0,63.0,-100.00,NNW,328,3.0,5.0,96,0.00,,,0.03,0.000000,,2013-05-06 09:11:00,
2013-05-05 23:22:00,64.0,63.0,-100.00,NNW,328,3.0,5.0,96,0.00,,,0.03,0.000000,,2013-05-06 09:22:00,
2013-05-05 23:32:00,64.0,63.0,-100.00,NNW,328,3.0,5.0,96,0.00,,,0.03,0.000000,,2013-05-06 09:32:00,
2013-05-05 23:42:00,64.0,63.0,-100.00,NNW,328,3.0,5.0,96,0.00,,,0.03,0.000000,,2013-05-06 09:42:00,